SBRF

Recife/Guararapes–Gilberto Freyre International Airport

Airport
ICAO code
SBRF
IATA Code
REC
Summary
ICAO Region
CARSAM
ICAO Territory
Location

Recife, Pernambuco

Serving
Recife
Elevation
33 ft
Coordinates
8° 7' 35" S , 34° 55' 22" W
KCC
Metar
Observation
SBRF 081000Z 08005KT 050V130 9999 SCT023 28/21 Q1011
Station
Recife Aeroporto
Date/Time
2022-12-08 10:00:00
Wind direction
80°
Wind speed
05 kts
Lowest cloud amount
scattered clouds
Temperature
28°C
Dew point
21°C
Humidity
65%
QNH
1011 hPa
Weather condition
n/a

Recife International Airport (IATA: REC, ICAO: SBRF) is the airport of Recife, Pernambuco.

Climatology

Tropical monsoon climate (Köppen climate classification Cfc)

Runways

Designator Length Width Surface Rops
18/36 3007 45 ASP Yes/Yes

Airport map

Aerial View

SKYbrary Partners:

Safety knowledge contributed by: